Aviation Digital Data Service (ADDS)

Output produced by METARs form (1300 UTC 21 February 2018)
found at http://www.aviationweather.gov/adds/metars/
 
TAF AMD KECG 211227Z 2112/2212 20006KT 3/4SM BR VV002 
     TEMPO 2112/2114 1/4SM FG OVC001 
     FM211400 21007KT 4SM BR SCT002 
     FM211500 21008KT P6SM SCT007 
     FM212300 19007KT P6SM SCT250
       
TAF KEDW 201003Z 2010/2116 27009KT 9999 SKC 520009 QNH3003INS 
     BECMG 2020/2021 30010G15KT 9999 SKC QNH3009INS 
     BECMG 2101/2102 VRB06KT 9999 FEW200 QNH3011INS TX11/2021Z TNM05/2014Z
       
TAF AMD KEFD 201310Z 2013/2118 15012G18KT 9999 OVC008 510102 QNH2992INS 
     BECMG 2017/2018 16009KT 8000 -SHRA OVC007 510102 QNH2999INS 
     BECMG 2021/2022 16009KT 9999 NSW OVC005 510102 QNH3000INS 
     BECMG 2106/2107 17009KT 9000 -SHRA OVC007 510102 QNH3007INS 
     TEMPO 2115/2118 16010G15KT 6000 -TSRA OVC010CB TX24/2021Z TN21/2013Z
       
TAF AMD KEGI 201231Z 2012/2116 13006KT 9999 BKN060 QNH3023INS 
     BECMG 2014/2015 14012G18KT 9999 FEW010 BKN060 QNH3028INS 
     BECMG 2020/2021 12006KT 9000 -SHRA SCT007 BKN020 QNH3023INS 
     BECMG 2023/2024 12006KT 9999 NSW BKN015 QNH3027INS 
     BECMG 2111/2112 12006KT 9999 SCT007 BKN020 QNH3032INS TX25/2017Z TN19/2012Z FCST BY USAF WX MET TECH
       
TAF AMD KEND 211220Z 2112/2217 01012KT 9999 FEW020 BKN200 QNH3034INS 
     BECMG 2114/2115 01010G15KT 9999 BKN150 QNH3036INS 
     BECMG 2117/2118 01012G18KT 9999 SCT040 BKN100 QNH3033INS 
     BECMG 2119/2120 01015G20KT 8000 -PL BKN030 OVC100 660303 QNH3030INS 
     BECMG 2123/2124 02009KT 6000 -PL BKN010 660104 QNH3030INS 
     TEMPO 2200/2207 6000 -FZRA BR OVC005 690001 660103 
     BECMG 2207/2208 35009KT 6000 BR OVC005 620053 QNH3033INS 
     BECMG 2211/2212 35006KT 9999 NSW OVC007 620073 QNH3035INS TXM01/2120Z TNM08/2112Z
       
KEWR 201403Z 2014/2118 23008KT 5SM BR BKN006 
     FM201600 23010KT 6SM BR SCT007 BKN015 
     FM201800 23012G18KT P6SM SCT015 SCT025 BKN250 
     FM202300 20006KT P6SM SCT015 BKN250 
     FM210300 21004KT 3SM BR BKN007 
     FM210500 20004KT 1/2SM FG BKN004 
     FM211300 21009KT 2SM BR SCT005 BKN015 
     FM211500 22011KT P6SM SCT015 SCT040